createdAt,value
2018-01-29T00:00:14.801Z,1021.6
2018-01-29T00:00:55.225Z,1021.66
2018-01-29T00:01:35.603Z,1021.61
2018-01-29T00:02:16.067Z,1021.58
2018-01-29T00:02:56.449Z,1021.57
2018-01-29T00:03:36.780Z,1021.62
2018-01-29T00:04:17.224Z,1021.61
2018-01-29T00:04:57.618Z,1021.63
2018-01-29T00:05:38.014Z,1021.58
2018-01-29T00:06:18.339Z,1021.47
2018-01-29T00:06:58.771Z,1021.51
2018-01-29T00:07:39.170Z,1021.58
2018-01-29T00:08:19.577Z,1021.57
2018-01-29T00:08:59.969Z,1021.58
2018-01-29T00:09:40.339Z,1021.52
2018-01-29T00:10:20.707Z,1021.55
2018-01-29T00:11:01.136Z,1021.54
2018-01-29T00:11:41.584Z,1021.46
2018-01-29T00:12:21.985Z,1021.56
2018-01-29T00:13:02.369Z,1021.43
2018-01-29T00:13:42.800Z,1021.52
2018-01-29T00:14:23.157Z,1021.48
2018-01-29T00:15:03.583Z,1021.43
2018-01-29T00:15:43.973Z,1021.47
2018-01-29T00:16:24.399Z,1021.48
2018-01-29T00:17:04.745Z,1021.49
2018-01-29T00:17:45.163Z,1021.41
2018-01-29T00:18:25.525Z,1021.41
2018-01-29T00:19:05.893Z,1021.42
2018-01-29T00:19:46.248Z,1021.4
2018-01-29T00:20:26.795Z,1021.45
2018-01-29T00:21:07.166Z,1021.38
2018-01-29T00:21:47.565Z,1021.39
2018-01-29T00:22:27.917Z,1021.39
2018-01-29T00:23:08.375Z,1021.4
2018-01-29T00:23:48.737Z,1021.51
2018-01-29T00:24:29.099Z,1021.47
2018-01-29T00:25:10.417Z,1021.4
2018-01-29T00:25:50.885Z,1021.4
2018-01-29T00:26:31.215Z,1021.41
2018-01-29T00:27:11.655Z,1021.41
2018-01-29T00:27:52.057Z,1021.37
2018-01-29T00:28:32.506Z,1021.42
2018-01-29T00:29:12.932Z,1021.39
2018-01-29T00:29:53.302Z,1021.39
2018-01-29T00:30:33.673Z,1021.36
2018-01-29T00:31:14.096Z,1021.35
2018-01-29T00:31:54.468Z,1021.33
2018-01-29T00:32:34.926Z,1021.37
2018-01-29T00:33:15.223Z,1021.3
2018-01-29T00:33:55.663Z,1021.36
2018-01-29T00:34:36.092Z,1021.34
2018-01-29T00:35:16.461Z,1021.34
2018-01-29T00:35:56.860Z,1021.25
2018-01-29T00:36:37.346Z,1021.25
2018-01-29T00:37:17.672Z,1021.26
2018-01-29T00:37:58.092Z,1021.23
2018-01-29T00:38:38.512Z,1021.24
2018-01-29T00:39:18.921Z,1021.22
2018-01-29T00:39:59.305Z,1021.28
2018-01-29T00:40:39.746Z,1021.13
2018-01-29T00:41:20.142Z,1021.2
2018-01-29T00:42:00.591Z,1021.19
2018-01-29T00:42:40.883Z,1021.23
2018-01-29T00:43:21.329Z,1021.23
2018-01-29T00:44:01.756Z,1021.22
2018-01-29T00:44:42.085Z,1021.18
2018-01-29T00:45:22.578Z,1021.19
2018-01-29T00:46:02.957Z,1021.19
2018-01-29T00:46:43.332Z,1021.24
2018-01-29T00:47:23.752Z,1021.18
2018-01-29T00:48:04.109Z,1021.13
2018-01-29T00:48:44.542Z,1021.18
2018-01-29T00:49:24.920Z,1021.22
2018-01-29T00:50:05.322Z,1021.12
2018-01-29T00:50:45.660Z,1021.16
2018-01-29T00:51:26.091Z,1021.06
2018-01-29T00:52:06.527Z,1021.14
2018-01-29T00:52:46.951Z,1021.16
2018-01-29T00:53:27.308Z,1021.14
2018-01-29T00:54:07.735Z,1021.07
2018-01-29T00:54:48.134Z,1021.1
2018-01-29T00:55:28.585Z,1021.12
2018-01-29T00:56:08.943Z,1021.03
2018-01-29T00:56:49.387Z,1021.07
2018-01-29T00:57:29.722Z,1021.07
2018-01-29T00:58:10.190Z,1021.11
2018-01-29T00:58:50.596Z,1021
2018-01-29T00:59:31.031Z,1021.01
2018-01-29T01:00:11.436Z,1021.01
2018-01-29T01:00:51.806Z,1021.04
2018-01-29T01:01:32.199Z,1021.03
2018-01-29T01:02:12.702Z,1021.01
2018-01-29T01:02:53.063Z,1021.02
2018-01-29T01:03:33.419Z,1020.99
2018-01-29T01:04:13.817Z,1020.98
2018-01-29T01:04:54.231Z,1020.96
2018-01-29T01:05:34.609Z,1020.97
2018-01-29T01:06:15.023Z,1021.01
2018-01-29T01:06:55.457Z,1021
2018-01-29T01:07:35.880Z,1021
2018-01-29T01:08:16.256Z,1020.92
2018-01-29T01:08:56.645Z,1020.96
2018-01-29T01:09:37.034Z,1020.95
2018-01-29T01:10:17.435Z,1020.99
2018-01-29T01:10:57.820Z,1021.04
2018-01-29T01:11:38.187Z,1021
2018-01-29T01:12:18.636Z,1021.02
2018-01-29T01:12:58.960Z,1020.99
2018-01-29T01:13:39.338Z,1020.96
2018-01-29T01:14:19.857Z,1021
2018-01-29T01:15:00.216Z,1021.03
2018-01-29T01:15:40.582Z,1020.97
2018-01-29T01:16:20.985Z,1020.95
2018-01-29T01:17:01.408Z,1020.95
2018-01-29T01:17:41.805Z,1020.93
2018-01-29T01:18:22.164Z,1020.99
2018-01-29T01:19:02.668Z,1020.99
2018-01-29T01:19:43.105Z,1020.96
2018-01-29T01:20:23.456Z,1021.01
2018-01-29T01:21:03.908Z,1021.01
2018-01-29T01:21:44.388Z,1020.98
2018-01-29T01:22:24.742Z,1021.02
2018-01-29T01:23:05.125Z,1021
2018-01-29T01:23:45.513Z,1020.92
2018-01-29T01:24:25.945Z,1020.97
2018-01-29T01:25:06.346Z,1020.94
2018-01-29T01:25:46.755Z,1020.97
2018-01-29T01:26:27.163Z,1020.98
2018-01-29T01:27:07.558Z,1021
2018-01-29T01:27:47.972Z,1020.95
2018-01-29T01:28:28.329Z,1021.02
2018-01-29T01:29:08.765Z,1020.98
2018-01-29T01:29:49.144Z,1021.04
2018-01-29T01:30:29.495Z,1021.05
2018-01-29T01:31:09.908Z,1021.06
2018-01-29T01:31:50.344Z,1021.03
2018-01-29T01:32:30.851Z,1021.02
2018-01-29T01:33:11.261Z,1021.06
2018-01-29T01:33:51.771Z,1021.09
2018-01-29T01:34:32.066Z,1021.08
2018-01-29T01:35:12.441Z,1021.03
2018-01-29T01:35:52.837Z,1021.06
2018-01-29T01:36:33.307Z,1021.07
2018-01-29T01:37:13.687Z,1021.09
2018-01-29T01:37:54.027Z,1021.04
2018-01-29T01:38:34.400Z,1021.04
2018-01-29T01:39:14.847Z,1021.04
2018-01-29T01:39:55.230Z,1021.1
2018-01-29T01:40:35.731Z,1021.03
2018-01-29T01:41:16.023Z,1021.04
2018-01-29T01:41:56.453Z,1020.98
2018-01-29T01:42:36.815Z,1021.01
2018-01-29T01:43:17.237Z,1021.06
2018-01-29T01:43:57.612Z,1021.02
2018-01-29T01:44:37.976Z,1020.98
2018-01-29T01:45:18.345Z,1020.98
2018-01-29T01:45:58.903Z,1020.99
2018-01-29T01:46:39.288Z,1020.96
2018-01-29T01:47:19.653Z,1020.92
2018-01-29T01:48:00.145Z,1021
2018-01-29T01:48:40.495Z,1021
2018-01-29T01:49:20.924Z,1020.96
2018-01-29T01:50:01.322Z,1020.97
2018-01-29T01:50:41.758Z,1020.98
2018-01-29T01:51:22.215Z,1020.92
2018-01-29T01:52:02.681Z,1020.86
2018-01-29T01:52:43.299Z,1020.84
2018-01-29T01:53:23.623Z,1020.85
2018-01-29T01:54:04.069Z,1020.87
2018-01-29T01:54:44.384Z,1020.92
2018-01-29T01:55:24.821Z,1020.88
2018-01-29T01:56:05.192Z,1020.84
2018-01-29T01:56:45.626Z,1020.86
2018-01-29T01:57:25.981Z,1020.77
2018-01-29T01:58:06.394Z,1020.83
2018-01-29T01:58:46.790Z,1020.86
2018-01-29T01:59:27.232Z,1020.86
2018-01-29T02:00:07.641Z,1020.87
2018-01-29T02:00:48.306Z,1020.88
2018-01-29T02:01:28.797Z,1020.83
2018-01-29T02:02:09.175Z,1020.81
2018-01-29T02:02:49.578Z,1020.88
2018-01-29T02:03:29.927Z,1020.85
2018-01-29T02:04:10.384Z,1020.83
2018-01-29T02:04:50.768Z,1020.81
2018-01-29T02:05:31.130Z,1020.84
2018-01-29T02:06:11.556Z,1020.82
2018-01-29T02:06:51.965Z,1020.79
2018-01-29T02:07:32.438Z,1020.78
2018-01-29T02:08:12.694Z,1020.77
2018-01-29T02:08:53.095Z,1020.8
2018-01-29T02:09:33.515Z,1020.77
2018-01-29T02:10:13.924Z,1020.68
2018-01-29T02:10:54.311Z,1020.73
2018-01-29T02:11:34.732Z,1020.7
2018-01-29T02:12:15.140Z,1020.72
2018-01-29T02:12:55.803Z,1020.63
2018-01-29T02:13:36.240Z,1020.67
2018-01-29T02:14:16.607Z,1020.67
2018-01-29T02:14:56.976Z,1020.62
2018-01-29T02:15:37.348Z,1020.63
2018-01-29T02:16:17.852Z,1020.65
2018-01-29T02:16:58.258Z,1020.71
2018-01-29T02:17:38.617Z,1020.71
2018-01-29T02:18:19.021Z,1020.72
2018-01-29T02:18:59.388Z,1020.68
2018-01-29T02:19:39.843Z,1020.62
2018-01-29T02:20:20.185Z,1020.53
2018-01-29T02:21:00.776Z,1020.61
2018-01-29T02:21:41.148Z,1020.61
2018-01-29T02:22:21.581Z,1020.65
2018-01-29T02:23:02.022Z,1020.6
2018-01-29T02:23:42.400Z,1020.6
2018-01-29T02:24:22.853Z,1020.64
2018-01-29T02:25:03.237Z,1020.55
2018-01-29T02:25:43.618Z,1020.57
2018-01-29T02:26:24.057Z,1020.52
2018-01-29T02:27:04.496Z,1020.53
2018-01-29T02:27:44.894Z,1020.57
2018-01-29T02:28:25.263Z,1020.59
2018-01-29T02:29:05.706Z,1020.53
2018-01-29T02:29:46.045Z,1020.49
2018-01-29T02:30:26.452Z,1020.53
2018-01-29T02:31:06.902Z,1020.54
2018-01-29T02:31:47.281Z,1020.36
2018-01-29T02:32:27.749Z,1020.46
2018-01-29T02:33:08.186Z,1020.41
2018-01-29T02:33:48.546Z,1020.47
2018-01-29T02:34:28.950Z,1020.42
2018-01-29T02:35:09.393Z,1020.42
2018-01-29T02:35:49.747Z,1020.49
2018-01-29T02:36:30.195Z,1020.44
2018-01-29T02:37:10.583Z,1020.47
2018-01-29T02:37:51.039Z,1020.29
2018-01-29T02:38:31.419Z,1020.39
2018-01-29T02:39:11.802Z,1020.38
2018-01-29T02:39:52.188Z,1020.44
2018-01-29T02:40:32.634Z,1020.46
2018-01-29T02:41:13.007Z,1020.45
2018-01-29T02:41:53.439Z,1020.48
2018-01-29T02:42:33.836Z,1020.48
2018-01-29T02:43:14.205Z,1020.5
2018-01-29T02:43:54.585Z,1020.5
2018-01-29T02:44:34.994Z,1020.54
2018-01-29T02:45:15.395Z,1020.4
2018-01-29T02:45:55.773Z,1020.62
2018-01-29T02:46:36.167Z,1020.5
2018-01-29T02:47:16.639Z,1020.42
2018-01-29T02:47:57.042Z,1020.47
2018-01-29T02:48:37.431Z,1020.48
2018-01-29T02:49:17.899Z,1020.5
2018-01-29T02:49:58.241Z,1020.44
2018-01-29T02:50:38.726Z,1020.47
2018-01-29T02:51:19.085Z,1020.43
2018-01-29T02:51:59.581Z,1020.5
2018-01-29T02:52:39.867Z,1020.48
2018-01-29T02:53:20.309Z,1020.43
2018-01-29T02:54:00.640Z,1020.39
2018-01-29T02:54:41.148Z,1020.29
2018-01-29T02:55:21.494Z,1020.35
2018-01-29T02:56:01.889Z,1020.34
2018-01-29T02:56:42.319Z,1020.34
2018-01-29T02:57:24.687Z,1020.38
2018-01-29T02:58:05.112Z,1020.28
2018-01-29T02:58:45.460Z,1020.29
2018-01-29T02:59:26.091Z,1020.24
2018-01-29T03:00:06.374Z,1020.28
2018-01-29T03:00:46.730Z,1020.2
2018-01-29T03:01:27.133Z,1020.07
2018-01-29T03:02:07.783Z,1020.19
2018-01-29T03:02:48.298Z,1020.11
2018-01-29T03:03:28.657Z,1019.93
2018-01-29T03:04:09.211Z,1020.06
2018-01-29T03:04:49.538Z,1019.97
2018-01-29T03:05:29.974Z,1019.97
2018-01-29T03:06:10.619Z,1019.96
2018-01-29T03:06:50.879Z,1019.94
2018-01-29T03:07:31.327Z,1019.91
2018-01-29T03:08:11.773Z,1019.98
2018-01-29T03:08:52.548Z,1019.93
2018-01-29T03:09:33.023Z,1019.87
2018-01-29T03:10:13.322Z,1019.78
2018-01-29T03:10:53.752Z,1019.81
2018-01-29T03:11:34.184Z,1019.89
2018-01-29T03:12:14.631Z,1019.87
2018-01-29T03:12:55.071Z,1019.89
2018-01-29T03:13:35.455Z,1019.82
2018-01-29T03:14:15.833Z,1019.92
2018-01-29T03:14:56.326Z,1019.89
2018-01-29T03:15:36.718Z,1019.92
2018-01-29T03:16:17.052Z,1019.78
2018-01-29T03:16:57.449Z,1019.82
2018-01-29T03:17:38.169Z,1019.85
2018-01-29T03:18:18.321Z,1019.88
2018-01-29T03:18:58.694Z,1019.84
2018-01-29T03:19:39.098Z,1019.88
2018-01-29T03:20:19.520Z,1019.81
2018-01-29T03:20:59.897Z,1019.85
2018-01-29T03:21:40.459Z,1019.82
2018-01-29T03:22:20.801Z,1019.79
2018-01-29T03:23:01.192Z,1019.82
2018-01-29T03:23:41.593Z,1019.78
2018-01-29T03:24:22.000Z,1019.76
2018-01-29T03:25:02.416Z,1019.69
2018-01-29T03:25:42.919Z,1019.8
2018-01-29T03:26:23.259Z,1019.82
2018-01-29T03:27:03.768Z,1019.7
2018-01-29T03:27:44.192Z,1019.76
2018-01-29T03:28:24.535Z,1019.76
2018-01-29T03:29:04.873Z,1019.79
2018-01-29T03:29:45.296Z,1019.74
2018-01-29T03:30:25.786Z,1019.73
2018-01-29T03:31:06.138Z,1019.68
2018-01-29T03:31:46.504Z,1019.71
2018-01-29T03:32:26.974Z,1019.66
2018-01-29T03:33:07.343Z,1019.68
2018-01-29T03:33:47.786Z,1019.64
2018-01-29T03:34:28.226Z,1019.54
2018-01-29T03:35:08.591Z,1019.66
2018-01-29T03:35:49.048Z,1019.67
2018-01-29T03:36:29.432Z,1019.67
2018-01-29T03:37:09.936Z,1019.66
2018-01-29T03:37:50.384Z,1019.72
2018-01-29T03:38:30.780Z,1019.64
2018-01-29T03:39:11.183Z,1019.62
2018-01-29T03:39:51.681Z,1019.58
2018-01-29T03:40:32.040Z,1019.6
2018-01-29T03:41:12.608Z,1019.66
2018-01-29T03:41:52.918Z,1019.59
2018-01-29T03:42:33.262Z,1019.56
2018-01-29T03:43:13.721Z,1019.43
2018-01-29T03:43:54.160Z,1019.51
2018-01-29T03:44:34.542Z,1019.52
2018-01-29T03:45:14.955Z,1019.57
2018-01-29T03:45:55.265Z,1019.55
2018-01-29T03:46:35.673Z,1019.51
2018-01-29T03:47:16.131Z,1019.58
2018-01-29T03:47:56.485Z,1019.41
2018-01-29T03:48:36.944Z,1019.44
2018-01-29T03:49:17.382Z,1019.21
2018-01-29T03:49:57.753Z,1019.48
2018-01-29T03:50:38.176Z,1019.41
2018-01-29T03:51:18.620Z,1019.43
2018-01-29T03:51:59.000Z,1019.43
2018-01-29T03:52:39.452Z,1019.36
2018-01-29T03:53:19.935Z,1019.35
2018-01-29T03:54:00.383Z,1019.44
2018-01-29T03:54:40.691Z,1019.29
2018-01-29T03:55:21.077Z,1019.28
2018-01-29T03:56:01.692Z,1019.16
2018-01-29T03:56:41.899Z,1019.22
2018-01-29T03:57:22.341Z,1019.1
2018-01-29T03:58:02.812Z,1019.27
2018-01-29T03:58:43.294Z,1019.15
2018-01-29T03:59:23.663Z,1019.28
2018-01-29T04:00:04.034Z,1019.22
2018-01-29T04:00:44.464Z,1019.26
2018-01-29T04:01:24.822Z,1019.19
2018-01-29T04:02:05.271Z,1019.22
2018-01-29T04:42:17.636Z,1019.12
2018-01-29T04:43:10.163Z,1019.03
2018-01-29T04:44:02.465Z,1019.04
2018-01-29T04:44:55.198Z,1019.09
2018-01-29T04:45:45.030Z,1018.76
2018-01-29T04:46:25.345Z,1019.01
2018-01-29T04:47:05.827Z,1019.07
2018-01-29T04:47:46.231Z,1019.05
2018-01-29T04:48:26.660Z,1018.97
2018-01-29T04:49:07.171Z,1019.1
2018-01-29T04:49:47.521Z,1019.13
2018-01-29T04:50:27.925Z,1019.09
2018-01-29T04:51:08.345Z,1019.05
2018-01-29T04:51:48.863Z,1019.18
2018-01-29T04:52:29.171Z,1019.07
2018-01-29T04:53:09.731Z,1019.05
2018-01-29T04:53:50.092Z,1019.17
2018-01-29T04:54:30.526Z,1019.14
2018-01-29T04:55:10.950Z,1019.18
2018-01-29T04:55:51.788Z,1019.2
2018-01-29T04:56:33.034Z,1019.14
2018-01-29T04:57:13.438Z,1019.14
2018-01-29T04:57:53.882Z,1019.17
2018-01-29T04:58:34.370Z,1018.78
2018-01-29T04:59:14.993Z,1019.08
2018-01-29T04:59:55.352Z,1019.11
2018-01-29T05:00:35.708Z,1019.14
2018-01-29T05:01:16.137Z,1019.17
2018-01-29T05:01:56.954Z,1019.12
2018-01-29T05:02:37.346Z,1019.16
2018-01-29T05:03:18.628Z,1018.97
2018-01-29T05:03:58.944Z,1019.05
2018-01-29T05:04:39.336Z,1019.11
2018-01-29T05:05:19.702Z,1019.18
2018-01-29T05:06:00.133Z,1019.18
2018-01-29T05:06:40.533Z,1019.21
2018-01-29T05:07:20.969Z,1018.62
2018-01-29T05:08:01.292Z,1019.14
2018-01-29T05:08:41.784Z,1019.15
2018-01-29T05:09:22.265Z,1019.11
2018-01-29T05:10:03.832Z,1019.13
2018-01-29T05:10:44.239Z,1019.15
2018-01-29T05:11:25.111Z,1019.16
2018-01-29T05:12:05.496Z,1019.17
2018-01-29T05:12:45.898Z,1019.12
2018-01-29T05:13:26.350Z,1018.94
2018-01-29T05:14:07.601Z,1019.18
2018-01-29T05:14:48.228Z,1019.16
2018-01-29T05:15:28.607Z,1019
2018-01-29T05:16:08.990Z,1018.97
2018-01-29T05:16:50.208Z,1019.05
2018-01-29T05:17:30.698Z,1019.07
2018-01-29T05:18:11.238Z,1019.03
2018-01-29T05:18:51.592Z,1018.86
2018-01-29T05:19:32.034Z,1019.06
2018-01-29T05:20:12.563Z,1019.08
2018-01-29T05:20:52.889Z,1019.13
2018-01-29T05:21:33.388Z,1019.05
2018-01-29T05:22:13.854Z,1019.12
2018-01-29T05:22:54.221Z,1019.26
2018-01-29T05:23:34.722Z,1019.14
2018-01-29T05:24:15.092Z,1019.12
2018-01-29T05:24:55.551Z,1019.08
2018-01-29T05:25:35.923Z,1019.09
2018-01-29T05:26:16.335Z,1019
2018-01-29T05:26:56.711Z,1019.11
2018-01-29T05:27:37.831Z,1018.99
2018-01-29T05:28:20.115Z,1018.93
2018-01-29T05:35:16.852Z,1018.89
2018-01-29T05:35:57.290Z,1018.94
2018-01-29T05:36:38.701Z,1018.98
2018-01-29T05:37:19.798Z,1018.96
2018-01-29T05:38:00.186Z,1018.91
2018-01-29T05:38:40.987Z,1019.05
2018-01-29T05:39:21.838Z,1018.9
2018-01-29T05:40:01.850Z,1019.07
2018-01-29T05:40:42.607Z,1018.96
2018-01-29T05:41:23.300Z,1018.86
2018-01-29T05:42:03.755Z,1018.98
2018-01-29T05:42:44.420Z,1018.7
2018-01-29T05:43:24.894Z,1019.05
2018-01-29T05:44:05.787Z,1018.85
2018-01-29T05:44:46.727Z,1018.83
2018-01-29T05:45:27.727Z,1019.12
2018-01-29T05:46:08.548Z,1019.03
2018-01-29T05:46:49.091Z,1019.14
2018-01-29T05:47:30.044Z,1018.96
2018-01-29T05:48:10.979Z,1019.06
2018-01-29T05:48:51.912Z,1019
2018-01-29T05:49:32.886Z,1019.15
2018-01-29T05:50:15.729Z,1019.06
2018-01-29T05:50:56.054Z,1019.1
2018-01-29T05:51:36.976Z,1019.14
2018-01-29T05:52:17.676Z,1019.06
2018-01-29T05:52:58.487Z,1019.14
2018-01-29T05:53:39.118Z,1019.14
2018-01-29T05:54:19.476Z,1018.97
2018-01-29T05:55:00.126Z,1019.05
2018-01-29T05:55:41.250Z,1019.1
2018-01-29T05:56:21.909Z,1019.11
2018-01-29T05:57:02.602Z,1019.03
2018-01-29T05:57:43.653Z,1019.02
2018-01-29T05:58:24.155Z,1018.99
2018-01-29T05:59:04.591Z,1019.07
2018-01-29T05:59:45.378Z,1019.02
2018-01-29T06:00:25.879Z,1018.98
2018-01-29T06:01:06.793Z,1018.96
2018-01-29T06:01:47.733Z,1019.03
2018-01-29T06:02:28.076Z,1018.9
2018-01-29T06:03:08.973Z,1019.1
2018-01-29T06:03:49.615Z,1019.04
2018-01-29T06:04:30.924Z,1019
2018-01-29T06:05:12.212Z,1019.05
2018-01-29T06:05:52.728Z,1019.05
2018-01-29T06:06:34.039Z,1018.9
2018-01-29T06:07:15.305Z,1018.95
2018-01-29T06:07:56.227Z,1018.97
2018-01-29T06:08:36.750Z,1018.85
2018-01-29T06:09:18.249Z,1019.04
2018-01-29T06:09:58.742Z,1019.11
2018-01-29T06:10:39.783Z,1018.92
2018-01-29T06:11:20.374Z,1018.79
2018-01-29T06:12:01.384Z,1019.07
2018-01-29T06:12:41.823Z,1019.02
2018-01-29T06:13:22.439Z,1018.99
2018-01-29T06:14:03.181Z,1018.99
2018-01-29T06:14:43.907Z,1018.84
2018-01-29T06:15:24.440Z,1018.98
2018-01-29T06:16:05.710Z,1019.01
2018-01-29T06:16:46.250Z,1018.67
2018-01-29T06:17:27.549Z,1019.02
2018-01-29T06:18:08.710Z,1019.03
2018-01-29T06:18:49.150Z,1018.97
2018-01-29T06:19:29.787Z,1018.96
2018-01-29T06:20:10.630Z,1018.99
2018-01-29T06:20:51.276Z,1019.04
2018-01-29T06:21:31.566Z,1018.93
2018-01-29T06:22:12.446Z,1019.02
2018-01-29T06:22:53.058Z,1019.08
2018-01-29T06:23:33.497Z,1019.01
2018-01-29T06:24:13.950Z,1019.01
2018-01-29T06:24:54.493Z,1018.91
2018-01-29T06:25:35.282Z,1019.02
2018-01-29T06:26:16.622Z,1018.98
2018-01-29T06:26:57.854Z,1019.02
2018-01-29T06:27:39.307Z,1019.02
2018-01-29T06:28:20.507Z,1019.04
2018-01-29T06:29:01.221Z,1019.05
2018-01-29T06:29:41.892Z,1019.11
2018-01-29T06:30:23.273Z,1019.05
2018-01-29T06:31:03.632Z,1019.06
2018-01-29T06:31:44.080Z,1019.05
2018-01-29T06:32:25.057Z,1019.04
2018-01-29T06:33:06.145Z,1019.03
2018-01-29T06:33:49.409Z,1018.89
2018-01-29T06:34:30.635Z,1018.93
2018-01-29T06:35:11.534Z,1018.58
2018-01-29T06:35:52.363Z,1018.9
2018-01-29T06:36:32.812Z,1018.62
2018-01-29T06:37:13.810Z,1018.97
2018-01-29T06:37:54.632Z,1018.94
2018-01-29T06:38:35.397Z,1018.98
2018-01-29T06:39:16.952Z,1018.98
2018-01-29T06:39:57.575Z,1019.05
2018-01-29T06:40:39.220Z,1018.94
2018-01-29T06:41:19.840Z,1018.93
2018-01-29T06:42:00.237Z,1018.95
2018-01-29T06:44:15.771Z,1018.83
2018-01-29T06:44:57.792Z,1018.89
2018-01-29T06:45:39.500Z,1018.83
2018-01-29T06:46:20.867Z,1018.87
2018-01-29T06:47:02.118Z,1018.93
2018-01-29T06:47:43.351Z,1018.98
2018-01-29T06:48:23.695Z,1018.8
2018-01-29T06:49:04.501Z,1018.77
2018-01-29T06:49:49.402Z,1018.91
2018-01-29T06:50:30.745Z,1018.96
2018-01-29T06:51:11.622Z,1018.9
2018-01-29T06:51:52.090Z,1018.87
2018-01-29T06:52:32.601Z,1018.89
2018-01-29T06:53:13.941Z,1018.89
2018-01-29T06:53:55.912Z,1018.94
2018-01-29T06:54:35.672Z,1018.92
2018-01-29T06:55:16.787Z,1018.81
2018-01-29T06:55:57.046Z,1018.8
2018-01-29T06:56:38.151Z,1019.1
2018-01-29T06:57:18.454Z,1019
2018-01-29T06:57:59.800Z,1018.95
2018-01-29T06:58:41.679Z,1018.92
2018-01-29T06:59:22.715Z,1018.92
2018-01-29T07:00:03.482Z,1018.9
2018-01-29T07:02:20.591Z,1018.77
2018-01-29T07:03:05.263Z,1018.87
2018-01-29T07:03:45.928Z,1018.98
2018-01-29T07:06:55.389Z,1018.91
2018-01-29T07:07:40.062Z,1018.96
2018-01-29T07:08:21.686Z,1018.93
2018-01-29T07:09:01.896Z,1018.9
2018-01-29T07:09:43.714Z,1018.83
2018-01-29T07:16:44.219Z,1018.76
2018-01-29T07:17:24.888Z,1018.82
2018-01-29T07:18:06.340Z,1018.78
2018-01-29T07:18:47.859Z,1018.58
2018-01-29T07:19:29.356Z,1018.71
2018-01-29T07:20:10.995Z,1018.73
2018-01-29T07:20:51.369Z,1018.52
2018-01-29T07:21:35.368Z,1018.68
2018-01-29T07:22:16.100Z,1018.81
2018-01-29T07:22:57.284Z,1018.61
2018-01-29T07:23:37.844Z,1018.38
2018-01-29T07:24:18.763Z,1018.62
2018-01-29T07:25:01.556Z,1018.69
2018-01-29T07:25:49.361Z,1018.68
2018-01-29T07:34:45.612Z,1018.78
2018-01-29T07:35:35.227Z,1018.65
2018-01-29T07:36:15.859Z,1018.66
2018-01-29T07:36:56.464Z,1018.88
2018-01-29T07:37:37.907Z,1018.71
2018-01-29T07:38:18.910Z,1018.64
2018-01-29T07:38:59.808Z,1018.7
2018-01-29T07:39:40.222Z,1018.69
2018-01-29T07:40:21.362Z,1018.72
2018-01-29T07:41:02.485Z,1018.7
2018-01-29T07:41:43.618Z,1018.43
2018-01-29T07:42:24.558Z,1018.65
2018-01-29T07:43:05.710Z,1018.75
2018-01-29T07:43:46.411Z,1018.61
2018-01-29T07:44:27.508Z,1018.61
2018-01-29T07:45:08.196Z,1018.7
2018-01-29T07:45:49.241Z,1018.59
2018-01-29T07:46:30.653Z,1018.59
2018-01-29T07:47:11.146Z,1018.64
2018-01-29T07:47:54.091Z,1018.63
2018-01-29T07:48:35.117Z,1018.61
2018-01-29T07:49:16.914Z,1018.49
2018-01-29T07:49:57.823Z,1018.6
2018-01-29T07:50:39.277Z,1018.62
2018-01-29T07:51:19.808Z,1018.51
2018-01-29T07:52:00.472Z,1018.5
2018-01-29T07:52:42.091Z,1018.53
2018-01-29T07:53:24.667Z,1018.41
2018-01-29T07:54:05.813Z,1018.33
2018-01-29T07:54:46.202Z,1018.48
2018-01-29T07:55:27.302Z,1018.51
2018-01-29T07:56:08.521Z,1018.58
2018-01-29T07:56:50.871Z,1018.52
2018-01-29T07:57:32.814Z,1018.4
2018-01-29T07:58:13.014Z,1018.56
2018-01-29T07:58:53.780Z,1018.38
2018-01-29T07:59:34.585Z,1018.57
2018-01-29T08:00:16.046Z,1018.54
2018-01-29T08:00:56.583Z,1018.56
2018-01-29T08:01:36.835Z,1018.55
2018-01-29T08:02:17.602Z,1018.58
2018-01-29T08:03:00.918Z,1018.49
2018-01-29T08:03:41.338Z,1018.5
2018-01-29T08:04:22.379Z,1018.46
2018-01-29T08:05:02.864Z,1018.41
2018-01-29T08:05:43.916Z,1018.39
2018-01-29T08:06:24.869Z,1018.47
2018-01-29T08:07:05.674Z,1018.47
2018-01-29T08:07:46.990Z,1018.44
2018-01-29T08:08:27.477Z,1018.56
2018-01-29T08:09:08.512Z,1018.48
2018-01-29T08:09:49.749Z,1018.37
2018-01-29T08:10:30.702Z,1018.44
2018-01-29T08:11:11.790Z,1018.43
2018-01-29T08:11:52.849Z,1018.47
2018-01-29T08:12:33.096Z,1018.43
2018-01-29T08:13:13.864Z,1018.37
2018-01-29T08:13:54.533Z,1018.35
2018-01-29T08:14:35.155Z,1018.42
2018-01-29T08:15:16.181Z,1018.31
2018-01-29T08:15:57.223Z,1018.41
2018-01-29T08:16:38.530Z,1018.31
2018-01-29T08:17:18.878Z,1018.44
2018-01-29T08:17:59.584Z,1018.42
2018-01-29T08:18:40.550Z,1018.31
2018-01-29T08:19:21.268Z,1018.27
2018-01-29T08:20:01.743Z,1018.41
2018-01-29T08:20:42.488Z,1018.33
2018-01-29T08:21:24.111Z,1018.35
2018-01-29T08:22:04.125Z,1018.36
2018-01-29T08:22:45.190Z,1018.37
2018-01-29T08:23:26.042Z,1018.38
2018-01-29T08:24:06.314Z,1018.35
2018-01-29T08:24:46.893Z,1018.5
2018-01-29T08:25:27.437Z,1018.4
2018-01-29T08:26:08.434Z,1018.46
2018-01-29T08:26:48.846Z,1018.38
2018-01-29T08:27:29.506Z,1018.42
2018-01-29T08:28:10.168Z,1018.41
2018-01-29T08:28:50.500Z,1018.53
2018-01-29T08:29:31.486Z,1018.53
2018-01-29T08:30:12.171Z,1018.58
2018-01-29T08:30:52.991Z,1018.43
2018-01-29T08:31:35.821Z,1018.5
2018-01-29T08:32:16.671Z,1018.53
2018-01-29T08:32:58.029Z,1018.48
2018-01-29T08:33:39.981Z,1018.4
2018-01-29T08:34:21.100Z,1018.44
2018-01-29T08:35:02.034Z,1018.38
2018-01-29T08:36:57.368Z,1018.4
2018-01-29T08:37:43.736Z,1018.42
2018-01-29T08:38:23.157Z,1018.37
2018-01-29T08:39:05.078Z,1018.5
2018-01-29T08:39:45.713Z,1018.5
2018-01-29T08:40:27.237Z,1018.37
2018-01-29T08:41:07.732Z,1018.45
2018-01-29T08:41:48.860Z,1018.46
2018-01-29T08:42:29.226Z,1018.44
2018-01-29T08:43:09.842Z,1018.47
2018-01-29T08:43:50.684Z,1018.42
2018-01-29T08:44:31.564Z,1018.44
2018-01-29T08:46:56.191Z,1018.45
2018-01-29T08:47:35.877Z,1018.36
2018-01-29T08:48:19.285Z,1018.4
2018-01-29T08:49:01.527Z,1018.43
2018-01-29T08:49:42.447Z,1018.42
2018-01-29T08:50:24.428Z,1018.36
2018-01-29T08:51:05.279Z,1018.36
2018-01-29T08:51:47.106Z,1018.45
2018-01-29T08:52:28.059Z,1018.5
2018-01-29T08:53:08.172Z,1018.43
2018-01-29T08:53:49.963Z,1018.36
2018-01-29T08:54:30.768Z,1018.46
2018-01-29T08:55:12.074Z,1018.35
2018-01-29T08:55:53.334Z,1018.41
2018-01-29T08:56:33.694Z,1018.31
2018-01-29T08:57:14.494Z,1018.36
2018-01-29T08:57:55.678Z,1018.35
2018-01-29T08:58:36.178Z,1018.2
2018-01-29T08:59:17.449Z,1018.25
2018-01-29T08:59:58.256Z,1018.37
2018-01-29T09:00:39.141Z,1018.16
2018-01-29T09:01:39.911Z,1018.24
2018-01-29T09:02:21.249Z,1018.26
2018-01-29T09:03:01.915Z,1018.19
2018-01-29T09:03:43.764Z,1018.3
2018-01-29T09:04:24.403Z,1018.18
2018-01-29T09:05:06.410Z,1018.26
2018-01-29T09:05:47.758Z,1018.23
2018-01-29T09:06:29.387Z,1018.2
2018-01-29T09:07:10.372Z,1018.17
2018-01-29T09:07:50.793Z,1018.14
2018-01-29T09:08:31.737Z,1018.17
2018-01-29T09:09:12.531Z,1018.12
2018-01-29T09:09:53.035Z,1018.1
2018-01-29T09:10:33.713Z,1018.16
2018-01-29T09:11:14.435Z,1018.14
2018-01-29T09:11:55.310Z,1018.11
2018-01-29T09:12:35.442Z,1018.17
2018-01-29T09:13:16.131Z,1018.16
2018-01-29T09:13:56.761Z,1018.1
2018-01-29T09:14:37.364Z,1018.06
2018-01-29T09:15:17.818Z,1018.13
2018-01-29T09:15:58.552Z,1018.03
2018-01-29T09:16:39.491Z,1017.51
2018-01-29T09:17:20.671Z,1018.18
2018-01-29T09:18:00.833Z,1018.1
2018-01-29T09:18:41.648Z,1018
2018-01-29T09:19:23.105Z,1018.01
2018-01-29T09:20:03.592Z,1018.17
2018-01-29T09:20:44.266Z,1018.01
2018-01-29T09:21:25.081Z,1018.15
2018-01-29T09:22:05.565Z,1018.08
2018-01-29T09:22:46.635Z,1018.08
2018-01-29T09:23:27.335Z,1018.14
2018-01-29T09:24:08.006Z,1017.84
2018-01-29T09:24:48.854Z,1018.14